Cocheco River @ Rochester, Nh

Cocheco River near Rochester, NH
 Total Drainage Area: 88 sq. miles 
 Drainage Area Controlled by Corps Dams: ?? sq. miles (??%) 
 Warning Flow/Stage: 400 cfs / 5.2 feet 
 Flood Flow/Stage: 500 cfs / 5.6 feet 
Date Time
(Eastern)
Stage
(ft)
Flow
(cfs)
CSM
(cfs / sq. mi.)
Air Temp.
(F)
Jan-31 04:00 pm 4.56 282 3.2 26.5
Jan-31 03:00 pm 4.58 286 3.3 28.5
Jan-31 02:00 pm 4.57 284 3.2 29.1
Jan-31 01:00 pm 4.58 286 3.3 30.6
Jan-31 12:00 pm 4.59 288 3.3 30.8
Jan-31 11:00 am 4.57 284 3.2 29.9
Jan-31 10:00 am 4.60 290 3.3 32.1
Jan-31 09:00 am 4.60 290 3.3 30.7
Jan-31 08:00 am 4.60 290 3.3 29.7
Jan-31 07:00 am 4.61 292 3.3 29.4
Jan-31 06:00 am 4.61 292 3.3 29.4
Jan-31 05:00 am 4.61 292 3.3 29.5
Jan-31 04:00 am 4.63 296 3.4 30.8
Jan-31 03:00 am 4.63 296 3.4 31.4
Jan-31 02:00 am 4.63 296 3.4 31.7
Jan-31 01:00 am 4.63 296 3.4 31.9
Jan-31 12:00 am 4.63 296 3.4 32.3
Jan-30 11:00 pm 4.65 300 3.4 32.7
Jan-30 10:00 pm 4.65 300 3.4 33.7
Jan-30 09:00 pm 4.64 298 3.4 32.6
Jan-30 08:00 pm 4.66 302 3.4 32.4
Jan-30 07:00 pm 4.68 306 3.5 32.4
Jan-30 06:00 pm 4.68 306 3.5 33.5
Jan-30 05:00 pm 4.69 308 3.5 35.8
Jan-30 04:00 pm 4.67 304 3.5 38.0
Report Generated January 31, 2023 09:22 pm